Time;durP1;ratioP1;P1;durP2;ratioP2;P2;SDS_P1;SDS_P2;PMS_P1;PMS_P2;Temp;Humidity;BMP_temperature;BMP_pressure;BME280_temperature;BME280_humidity;BME280_pressure;Samples;Min_cycle;Max_cycle;Signal;HPM_P1;HPM_P2
2021/06/28 00:01:07;;;;;;;1999.90;999.90;;;19.90;99.90;;;;;;5031474;28;20793;-68
2021/06/28 00:03:34;;;;;;;1999.90;999.90;;;19.90;99.90;;;;;;5031473;28;20396;-68
2021/06/28 00:06:00;;;;;;;1999.90;999.90;;;19.90;99.90;;;;;;5031423;28;20404;-67
2021/06/28 00:08:26;;;;;;;1999.90;999.90;;;19.90;99.90;;;;;;5033641;28;20811;-68
2021/06/28 00:10:52;;;;;;;1999.90;999.90;;;19.90;99.90;;;;;;5034958;28;20433;-68
2021/06/28 00:13:18;;;;;;;1999.90;999.90;;;19.90;99.90;;;;;;5035211;28;20484;-67
2021/06/28 00:15:44;;;;;;;1999.90;999.90;;;19.90;99.90;;;;;;5034721;28;20284;-68
2021/06/28 00:18:10;;;;;;;1999.90;999.90;;;20.00;99.90;;;;;;5034985;28;20170;-69
2021/06/28 00:20:37;;;;;;;1999.90;999.90;;;20.00;99.90;;;;;;5034914;28;20538;-67
2021/06/28 00:23:03;;;;;;;1999.90;999.90;;;19.90;99.90;;;;;;5034928;28;20417;-68
2021/06/28 00:25:29;;;;;;;1999.90;999.90;;;19.80;99.90;;;;;;5034588;28;20406;-68
2021/06/28 00:27:56;;;;;;;1999.90;999.90;;;19.80;99.90;;;;;;5034849;28;20439;-68
2021/06/28 00:30:23;;;;;;;1999.90;999.90;;;19.80;99.90;;;;;;5034727;28;20482;-68
2021/06/28 00:32:50;;;;;;;1999.90;999.90;;;19.80;99.90;;;;;;5034933;28;20904;-68
2021/06/28 00:35:18;;;;;;;1999.90;999.90;;;19.80;99.90;;;;;;5034541;28;20450;-68
2021/06/28 00:37:45;;;;;;;1999.90;999.90;;;19.80;99.90;;;;;;5034640;28;20412;-69
2021/06/28 00:40:12;;;;;;;1999.90;999.90;;;19.80;99.90;;;;;;5034550;28;20485;-68
2021/06/28 00:42:38;;;;;;;1999.90;999.90;;;19.80;99.90;;;;;;5034539;28;20413;-68
2021/06/28 00:45:22;;;;;;;1999.90;999.90;;;19.80;99.90;;;;;;5034340;28;20407;-68
2021/06/28 00:47:48;;;;;;;1999.90;999.90;;;19.80;99.90;;;;;;5034604;28;20178;-68
2021/06/28 00:50:15;;;;;;;1999.90;999.90;;;19.70;99.90;;;;;;5034386;28;20432;-69
2021/06/28 00:52:42;;;;;;;1999.90;999.90;;;19.60;99.90;;;;;;5034427;28;20870;-68
2021/06/28 00:55:09;;;;;;;1999.90;999.90;;;19.50;99.90;;;;;;5033984;28;20452;-68
2021/06/28 00:57:35;;;;;;;1999.90;999.90;;;19.60;99.90;;;;;;5034263;28;20425;-68
2021/06/28 01:00:03;;;;;;;1999.90;999.90;;;19.60;99.90;;;;;;5034211;28;20892;-67
2021/06/28 01:02:29;;;;;;;1999.90;999.90;;;19.50;99.90;;;;;;5034146;28;20229;-67
2021/06/28 01:04:55;;;;;;;1999.90;999.90;;;19.60;99.90;;;;;;5033898;28;20421;-68
2021/06/28 01:07:20;;;;;;;1999.90;999.90;;;19.60;99.90;;;;;;5034172;28;20172;-68
2021/06/28 01:09:46;;;;;;;1999.90;999.90;;;19.50;99.90;;;;;;5033898;28;20197;-69
2021/06/28 01:12:11;;;;;;;1999.90;999.90;;;19.50;99.90;;;;;;5033986;28;20182;-68
2021/06/28 01:14:38;;;;;;;1999.90;999.90;;;19.50;99.90;;;;;;5033802;28;20230;-67
2021/06/28 01:17:03;;;;;;;1999.90;999.90;;;19.50;99.90;;;;;;5034132;28;20178;-68
2021/06/28 01:19:33;;;;;;;1999.90;999.90;;;19.50;99.90;;;;;;5033209;28;20406;-67
2021/06/28 01:22:02;;;;;;;1999.90;999.90;;;19.40;99.90;;;;;;5033794;28;20212;-68
2021/06/28 01:24:28;;;;;;;1999.90;999.90;;;19.50;99.90;;;;;;5033513;28;20411;-68
2021/06/28 01:26:54;;;;;;;1999.90;999.90;;;19.40;99.90;;;;;;5033623;28;20414;-67
2021/06/28 01:29:19;;;;;;;1999.90;999.90;;;19.40;99.90;;;;;;5033707;28;20187;-68
2021/06/28 01:31:45;;;;;;;1999.90;999.90;;;19.40;99.90;;;;;;5032311;28;20881;-68
2021/06/28 01:34:11;;;;;;;1999.90;999.90;;;19.40;99.90;;;;;;5033307;28;20195;-69
2021/06/28 01:36:37;;;;;;;1999.90;999.90;;;19.30;99.90;;;;;;5033556;28;20983;-68
2021/06/28 01:39:04;;;;;;;1999.90;999.90;;;19.30;99.90;;;;;;5033495;28;20329;-68
2021/06/28 01:41:30;;;;;;;1999.90;999.90;;;19.30;99.90;;;;;;5033317;28;20277;-67
2021/06/28 01:43:55;;;;;;;1999.90;999.90;;;19.30;99.90;;;;;;5033188;28;20459;-68
2021/06/28 01:46:21;;;;;;;1999.90;999.90;;;19.30;99.90;;;;;;5033374;28;20184;-69
2021/06/28 01:48:46;;;;;;;1999.90;999.90;;;19.30;99.90;;;;;;5033335;28;20174;-68
2021/06/28 01:51:12;;;;;;;1999.90;999.90;;;19.20;99.90;;;;;;5033198;28;20254;-68
2021/06/28 01:53:39;;;;;;;1999.90;999.90;;;19.20;99.90;;;;;;5033086;28;20644;-67
2021/06/28 01:56:05;;;;;;;1999.90;999.90;;;19.20;99.90;;;;;;5032925;28;20252;-67
2021/06/28 01:58:32;;;;;;;1999.90;999.90;;;19.20;99.90;;;;;;5033165;28;20501;-68
2021/06/28 02:00:58;;;;;;;1999.90;999.90;;;19.30;99.90;;;;;;5033319;28;20943;-68
2021/06/28 02:03:25;;;;;;;1999.90;999.90;;;19.30;99.90;;;;;;5033017;28;20433;-68
2021/06/28 02:05:53;;;;;;;1999.90;999.90;;;19.30;99.90;;;;;;5032721;28;20494;-68
2021/06/28 02:08:21;;;;;;;1999.90;999.90;;;19.30;99.90;;;;;;5032844;28;20577;-68
2021/06/28 02:10:54;;;;;;;1999.90;999.90;;;19.30;99.90;;;;;;5032842;28;20466;-68
2021/06/28 02:13:22;;;;;;;1999.90;999.90;;;19.30;99.90;;;;;;5032988;28;20398;-68
2021/06/28 02:15:48;;;;;;;1999.90;999.90;;;19.30;99.90;;;;;;5032464;28;20512;-68
2021/06/28 02:18:14;;;;;;;1999.90;999.90;;;19.20;99.90;;;;;;5032759;28;20419;-68
2021/06/28 02:20:39;;;;;;;1999.90;999.90;;;19.10;99.90;;;;;;5032600;28;20245;-68
2021/06/28 02:23:23;;;;;;;1999.90;999.90;;;19.10;99.90;;;;;;5032588;28;20436;-68
2021/06/28 02:25:59;;;;;;;1999.90;999.90;;;19.00;99.90;;;;;;5032430;28;20171;-68
2021/06/28 02:28:27;;;;;;;1999.90;999.90;;;18.90;99.90;;;;;;5031240;28;20481;-67
2021/06/28 02:30:55;;;;;;;1999.90;999.90;;;19.00;99.90;;;;;;5031833;28;20434;-67
2021/06/28 02:33:21;;;;;;;1999.90;999.90;;;19.00;99.90;;;;;;5032421;28;20762;-68
2021/06/28 02:35:46;;;;;;;1999.90;999.90;;;19.00;99.90;;;;;;5032124;28;20494;-68
2021/06/28 02:38:12;;;;;;;1999.90;999.90;;;19.00;99.90;;;;;;5032484;28;20408;-68
2021/06/28 02:40:38;;;;;;;1999.90;999.90;;;19.00;99.90;;;;;;5032328;28;20209;-68
2021/06/28 02:43:04;;;;;;;1999.90;999.90;;;19.00;99.90;;;;;;5032440;28;20177;-68
2021/06/28 02:45:29;;;;;;;1999.90;999.90;;;18.90;99.90;;;;;;5032085;28;20186;-68
2021/06/28 02:47:55;;;;;;;1999.90;999.90;;;18.90;99.90;;;;;;5032326;28;20263;-68
2021/06/28 02:50:21;;;;;;;1999.90;999.90;;;18.80;99.90;;;;;;5032189;28;20712;-68
2021/06/28 02:52:46;;;;;;;1999.90;999.90;;;18.80;99.90;;;;;;5032207;28;20177;-68
2021/06/28 02:55:12;;;;;;;1999.90;999.90;;;18.70;99.90;;;;;;5032093;28;20208;-68
2021/06/28 02:57:38;;;;;;;1999.90;999.90;;;18.80;99.90;;;;;;5032177;28;20439;-68
2021/06/28 03:00:11;;;;;;;1999.90;999.90;;;18.80;99.90;;;;;;5032037;28;20980;-68
2021/06/28 03:02:37;;;;;;;1999.90;999.90;;;18.80;99.90;;;;;;5032049;28;20178;-68
2021/06/28 03:05:07;;;;;;;1999.90;999.90;;;18.70;99.90;;;;;;5031731;28;20778;-67
2021/06/28 03:07:34;;;;;;;1999.90;999.90;;;18.70;99.90;;;;;;5032199;28;20209;-68
2021/06/28 03:10:00;;;;;;;1999.90;999.90;;;18.70;99.90;;;;;;5031866;28;20971;-68
2021/06/28 03:12:26;;;;;;;1999.90;999.90;;;18.70;99.90;;;;;;5032000;28;20933;-68
2021/06/28 03:14:51;;;;;;;1999.90;999.90;;;18.60;99.90;;;;;;5031983;28;20449;-68
2021/06/28 03:17:17;;;;;;;1999.90;999.90;;;18.60;99.90;;;;;;5031890;28;20450;-68
2021/06/28 03:19:43;;;;;;;1999.90;999.90;;;18.60;99.90;;;;;;5031778;28;20188;-68
2021/06/28 03:22:08;;;;;;;1999.90;999.90;;;18.40;99.90;;;;;;5031825;28;20173;-68
2021/06/28 03:24:34;;;;;;;1999.90;999.90;;;18.30;99.90;;;;;;5031725;28;20191;-68
2021/06/28 03:27:00;;;;;;;1999.90;999.90;;;18.30;99.90;;;;;;5031815;28;20740;-69
2021/06/28 03:29:25;;;;;;;1999.90;999.90;;;18.30;99.90;;;;;;5031813;28;20184;-68
2021/06/28 03:31:51;;;;;;;1999.90;999.90;;;18.30;99.90;;;;;;5031688;28;20589;-68
2021/06/28 03:34:17;;;;;;;1999.90;999.90;;;18.40;99.90;;;;;;5031472;28;20204;-68
2021/06/28 03:36:42;;;;;;;1999.90;999.90;;;18.40;99.90;;;;;;5031683;28;20189;-68
2021/06/28 03:39:08;;;;;;;1999.90;999.90;;;18.40;99.90;;;;;;5031742;28;20257;-68
2021/06/28 03:41:34;;;;;;;1999.90;999.90;;;18.40;99.90;;;;;;5031647;28;20235;-68
2021/06/28 03:44:00;;;;;;;1999.90;999.90;;;18.30;99.90;;;;;;5034598;28;20430;-68
2021/06/28 03:46:26;;;;;;;1999.90;999.90;;;18.30;99.90;;;;;;5035592;28;20172;-68
2021/06/28 03:48:52;;;;;;;1999.90;999.90;;;18.30;99.90;;;;;;5035589;28;20420;-68
2021/06/28 03:51:18;;;;;;;1999.90;999.90;;;18.30;99.90;;;;;;5035617;28;20429;-68
2021/06/28 03:53:43;;;;;;;1999.90;999.90;;;18.30;99.90;;;;;;5035166;28;20229;-66
2021/06/28 03:56:09;;;;;;;1999.90;999.90;;;18.30;99.90;;;;;;5035387;28;20980;-67
2021/06/28 03:58:40;;;;;;;1999.90;999.90;;;18.30;99.90;;;;;;5035393;28;20646;-67
2021/06/28 04:01:07;;;;;;;1999.90;999.90;;;18.40;99.90;;;;;;5035256;28;20231;-68
2021/06/28 04:03:35;;;;;;;1999.90;999.90;;;18.40;99.90;;;;;;5035440;28;20403;-68
2021/06/28 04:06:04;;;;;;;1999.90;999.90;;;18.40;99.90;;;;;;5035145;28;20409;-68
2021/06/28 04:08:31;;;;;;;1999.90;999.90;;;18.40;99.90;;;;;;5035281;28;20420;-68
2021/06/28 04:10:56;;;;;;;1999.90;999.90;;;18.40;99.90;;;;;;5035147;28;20782;-68
2021/06/28 04:13:22;;;;;;;1999.90;999.90;;;18.40;99.90;;;;;;5035102;28;20399;-68
2021/06/28 04:15:48;;;;;;;1999.90;999.90;;;18.50;99.90;;;;;;5034711;28;20608;-68
2021/06/28 04:18:13;;;;;;;1999.90;999.90;;;18.50;99.90;;;;;;5035133;28;20165;-67
2021/06/28 04:20:39;;;;;;;1999.90;999.90;;;18.50;99.90;;;;;;5034774;28;20205;-68
2021/06/28 04:23:06;;;;;;;1999.90;999.90;;;18.60;99.90;;;;;;5034971;28;20164;-68
2021/06/28 04:25:31;;;;;;;1999.90;999.90;;;18.60;99.90;;;;;;5034739;28;20419;-68
2021/06/28 04:27:57;;;;;;;1999.90;999.90;;;18.70;99.90;;;;;;5034850;28;20415;-68
2021/06/28 04:30:23;;;;;;;1999.90;999.90;;;18.70;99.90;;;;;;5034759;28;20183;-68
2021/06/28 04:32:49;;;;;;;1999.90;999.90;;;18.80;99.90;;;;;;5034836;28;20169;-68
2021/06/28 04:35:27;;;;;;;1999.90;999.90;;;18.90;99.90;;;;;;5034433;28;20220;-68
2021/06/28 04:37:54;;;;;;;1999.90;999.90;;;18.90;99.90;;;;;;5034670;28;20482;-69
2021/06/28 04:40:23;;;;;;;1999.90;999.90;;;19.00;99.90;;;;;;5034542;28;20514;-68
2021/06/28 04:42:49;;;;;;;1999.90;999.90;;;19.20;99.90;;;;;;5034847;28;20743;-68
2021/06/28 04:45:16;;;;;;;1999.90;999.90;;;19.30;99.90;;;;;;5034282;28;20438;-68
2021/06/28 04:47:43;;;;;;;1999.90;999.90;;;19.40;99.90;;;;;;5034528;28;20405;-68
2021/06/28 04:50:10;;;;;;;1999.90;999.90;;;19.40;99.90;;;;;;5034399;28;20905;-68
2021/06/28 04:52:37;;;;;;;1999.90;999.90;;;19.30;99.90;;;;;;5034413;28;20500;-68
2021/06/28 04:55:07;;;;;;;1999.90;999.90;;;19.40;99.90;;;;;;5032888;28;20453;-68
2021/06/28 04:57:33;;;;;;;1999.90;999.90;;;19.40;99.90;;;;;;5034565;28;20787;-68
2021/06/28 04:59:59;;;;;;;1999.90;999.90;;;19.40;99.90;;;;;;5034200;28;20428;-68
2021/06/28 05:02:25;;;;;;;1999.90;999.90;;;19.50;99.90;;;;;;5034377;28;20407;-68
2021/06/28 05:04:51;;;;;;;1999.90;999.90;;;19.60;99.90;;;;;;5033940;28;20170;-68
2021/06/28 05:07:17;;;;;;;1999.90;999.90;;;19.60;99.90;;;;;;5034166;28;20417;-68
2021/06/28 05:09:44;;;;;;;1999.90;999.90;;;19.70;99.90;;;;;;5033934;28;20447;-68
2021/06/28 05:12:11;;;;;;;1999.90;999.90;;;19.80;99.90;;;;;;5034069;28;20445;-68
2021/06/28 05:14:36;;;;;;;1999.90;999.90;;;19.90;99.90;;;;;;5033701;28;20458;-68
2021/06/28 05:17:02;;;;;;;1999.90;999.90;;;19.90;99.90;;;;;;5033949;28;20406;-68
2021/06/28 05:19:28;;;;;;;1999.90;999.90;;;19.90;99.90;;;;;;5033798;28;20169;-68
2021/06/28 05:21:53;;;;;;;1999.90;999.90;;;20.00;99.90;;;;;;5033848;28;20699;-68
2021/06/28 05:24:19;;;;;;;1999.90;999.90;;;20.20;99.90;;;;;;5033526;28;20253;-68
2021/06/28 05:26:44;;;;;;;1999.90;999.90;;;20.20;99.90;;;;;;5033847;28;20634;-68
2021/06/28 05:29:10;;;;;;;1999.90;999.90;;;20.30;99.90;;;;;;5033785;28;20165;-68
2021/06/28 05:31:36;;;;;;;1999.90;999.90;;;20.20;99.90;;;;;;5033614;28;20192;-68
2021/06/28 05:34:01;;;;;;;1999.90;999.90;;;20.20;99.90;;;;;;5033214;28;20202;-68
2021/06/28 05:36:27;;;;;;;1999.90;999.90;;;20.30;99.90;;;;;;5033686;28;20178;-68
2021/06/28 05:38:53;;;;;;;1999.90;999.90;;;20.30;99.90;;;;;;5033447;28;20261;-68
2021/06/28 05:41:18;;;;;;;1999.90;999.90;;;20.40;99.90;;;;;;5033661;28;20201;-68
2021/06/28 05:43:44;;;;;;;1999.90;999.90;;;20.50;99.90;;;;;;5033314;28;20246;-68
2021/06/28 05:46:11;;;;;;;1999.90;999.90;;;20.50;99.90;;;;;;5033358;28;20175;-68
2021/06/28 05:48:36;;;;;;;1999.90;999.90;;;20.50;99.90;;;;;;5033277;28;20469;-68
2021/06/28 05:51:02;;;;;;;1999.90;999.90;;;20.60;99.90;;;;;;5033243;28;20438;-68
2021/06/28 05:53:28;;;;;;;1999.90;999.90;;;20.70;99.90;;;;;;5033117;28;20211;-68
2021/06/28 05:55:54;;;;;;;1999.90;999.90;;;20.70;99.90;;;;;;5032910;28;20490;-68
2021/06/28 05:58:24;;;;;;;1999.90;999.90;;;20.70;99.90;;;;;;5033435;28;20255;-68
2021/06/28 06:00:50;;;;;;;1999.90;999.90;;;20.70;99.90;;;;;;5033026;28;20427;-68
2021/06/28 06:03:15;;;;;;;1999.90;999.90;;;20.80;99.90;;;;;;5033011;28;21003;-69
2021/06/28 06:05:41;;;;;;;1999.90;999.90;;;20.90;99.90;;;;;;5032620;28;20174;-68
2021/06/28 06:08:07;;;;;;;1999.90;999.90;;;21.00;99.90;;;;;;5032955;28;20218;-68
2021/06/28 06:10:33;;;;;;;1999.90;999.90;;;21.20;99.90;;;;;;5032831;28;20207;-68
2021/06/28 06:12:58;;;;;;;1999.90;999.90;;;21.20;99.90;;;;;;5033149;28;20265;-69
2021/06/28 06:15:24;;;;;;;1999.90;999.90;;;21.30;99.90;;;;;;5032534;28;20459;-68
2021/06/28 06:17:50;;;;;;;1999.90;999.90;;;21.40;99.90;;;;;;5032866;28;20192;-69
2021/06/28 06:20:15;;;;;;;1999.90;999.90;;;21.50;99.90;;;;;;5032648;28;20216;-68
2021/06/28 06:22:41;;;;;;;1999.90;999.90;;;21.60;99.90;;;;;;5032796;28;20499;-68
2021/06/28 06:25:08;;;;;;;1999.90;999.90;;;21.70;99.90;;;;;;5032442;28;20174;-68
2021/06/28 06:27:34;;;;;;;1999.90;999.90;;;21.60;99.90;;;;;;5032720;28;20425;-68
2021/06/28 06:30:00;;;;;;;1999.90;999.90;;;21.60;99.90;;;;;;5032524;28;20433;-68
2021/06/28 06:32:25;;;;;;;1999.90;999.90;;;21.60;99.90;;;;;;5032491;28;20418;-68
2021/06/28 06:34:51;;;;;;;1999.90;999.90;;;21.70;99.90;;;;;;5032193;28;20206;-68
2021/06/28 06:37:17;;;;;;;1999.90;999.90;;;21.70;99.90;;;;;;5032437;28;20619;-68
2021/06/28 06:39:43;;;;;;;1999.90;999.90;;;21.70;99.90;;;;;;5032335;28;20557;-67
2021/06/28 06:42:08;;;;;;;1999.90;999.90;;;21.80;99.90;;;;;;5032385;28;20407;-68
2021/06/28 06:44:34;;;;;;;1999.90;999.90;;;21.90;99.90;;;;;;5032140;28;20199;-69
2021/06/28 06:47:00;;;;;;;1999.90;999.90;;;22.00;99.90;;;;;;5032352;28;20182;-68
2021/06/28 06:49:26;;;;;;;1999.90;999.90;;;21.90;99.90;;;;;;5032354;28;20389;-69
2021/06/28 06:51:52;;;;;;;1999.90;999.90;;;21.80;99.90;;;;;;5032201;28;20224;-68
2021/06/28 06:54:18;;;;;;;1999.90;999.90;;;21.90;99.90;;;;;;5032069;28;20464;-68
2021/06/28 06:56:44;;;;;;;1999.90;999.90;;;21.90;99.90;;;;;;5032160;28;20455;-68
2021/06/28 06:59:09;;;;;;;1999.90;999.90;;;21.90;99.90;;;;;;5032091;28;20204;-68
2021/06/28 07:01:38;;;;;;;1999.90;999.90;;;21.80;99.90;;;;;;5032071;28;20199;-68
2021/06/28 07:04:04;;;;;;;1999.90;999.90;;;21.80;99.90;;;;;;5031863;28;20208;-68
2021/06/28 07:06:30;;;;;;;1999.90;999.90;;;21.90;99.90;;;;;;5031937;28;20447;-68
2021/06/28 07:08:56;;;;;;;1999.90;999.90;;;21.90;99.90;;;;;;5032078;28;20184;-67
2021/06/28 07:11:21;;;;;;;1999.90;999.90;;;22.10;99.90;;;;;;5031898;28;20599;-69
2021/06/28 07:13:50;;;;;;;1999.90;999.90;;;22.30;99.90;;;;;;5031652;28;20441;-68
2021/06/28 07:16:17;;;;;;;1999.90;999.90;;;22.50;99.90;;;;;;5032013;28;20186;-67
2021/06/28 07:18:43;;;;;;;1999.90;999.90;;;22.50;99.90;;;;;;5031456;28;20491;-69
2021/06/28 07:21:09;;;;;;;1999.90;999.90;;;22.50;99.90;;;;;;5031716;28;20470;-69
2021/06/28 07:23:35;;;;;;;1999.90;999.90;;;22.60;99.90;;;;;;5031993;28;20413;-69
2021/06/28 07:26:01;;;;;;;1999.90;999.90;;;22.80;99.90;;;;;;5031663;28;20388;-68
2021/06/28 07:28:29;;;;;;;1999.90;999.90;;;22.80;99.90;;;;;;5031924;28;20577;-69
2021/06/28 07:30:57;;;;;;;1999.90;999.90;;;22.70;99.90;;;;;;5031712;28;20434;-68
2021/06/28 07:33:27;;;;;;;1999.90;999.90;;;22.80;99.90;;;;;;5031729;28;20441;-68
2021/06/28 07:35:53;;;;;;;1999.90;999.90;;;22.70;99.90;;;;;;5031430;28;20462;-68
2021/06/28 07:38:19;;;;;;;1999.90;999.90;;;22.80;99.90;;;;;;5031968;28;20396;-68
2021/06/28 07:40:45;;;;;;;1999.90;999.90;;;22.90;99.90;;;;;;5031660;28;20870;-69
2021/06/28 07:43:11;;;;;;;1999.90;999.90;;;23.10;99.90;;;;;;5031674;28;20417;-68
2021/06/28 07:45:36;;;;;;;1999.90;999.90;;;23.20;99.90;;;;;;5031335;28;20176;-68
2021/06/28 07:48:02;;;;;;;1999.90;999.90;;;23.40;99.90;;;;;;5031585;28;20206;-69
2021/06/28 07:50:29;;;;;;;1999.90;999.90;;;23.60;99.90;;;;;;5031568;28;20287;-69
2021/06/28 07:52:55;;;;;;;1999.90;999.90;;;23.80;99.90;;;;;;5031597;28;20415;-68
2021/06/28 07:55:21;;;;;;;1999.90;999.90;;;24.10;99.90;;;;;;5031226;28;20461;-68
2021/06/28 07:57:47;;;;;;;1999.90;999.90;;;24.30;99.90;;;;;;5031566;28;20403;-69
2021/06/28 08:00:15;;;;;;;1999.90;999.90;;;24.50;99.90;;;;;;5031374;28;20492;-68
2021/06/28 08:02:42;;;;;;;1999.90;999.90;;;24.70;99.90;;;;;;5031556;28;20652;-69
2021/06/28 08:05:08;;;;;;;1999.90;999.90;;;24.90;99.90;;;;;;5031231;28;20374;-69
2021/06/28 08:07:34;;;;;;;1999.90;999.90;;;25.10;99.90;;;;;;5031484;28;20411;-69
2021/06/28 08:10:01;;;;;;;1999.90;999.90;;;25.30;99.90;;;;;;5031424;28;20410;-69
2021/06/28 08:12:26;;;;;;;1999.90;999.90;;;25.40;99.90;;;;;;5031507;28;20165;-69
2021/06/28 08:14:52;;;;;;;1999.90;999.90;;;25.50;99.90;;;;;;5031081;28;20450;-69
2021/06/28 08:17:18;;;;;;;1999.90;999.90;;;25.60;99.90;;;;;;5031403;28;20622;-69
2021/06/28 08:19:46;;;;;;;1999.90;999.90;;;25.70;99.90;;;;;;5031175;28;20230;-69
2021/06/28 08:22:12;;;;;;;1999.90;999.90;;;25.90;99.90;;;;;;5031416;28;20168;-69
2021/06/28 08:24:37;;;;;;;1999.90;999.90;;;26.10;99.90;;;;;;5030910;28;20897;-69
2021/06/28 08:27:03;;;;;;;1999.90;999.90;;;26.40;99.90;;;;;;5031311;28;20259;-68
2021/06/28 08:29:29;;;;;;;1999.90;999.90;;;26.40;99.90;;;;;;5031832;28;20546;-69
2021/06/28 08:31:55;;;;;;;1999.90;999.90;;;26.40;99.90;;;;;;5034642;28;20490;-69
2021/06/28 08:34:20;;;;;;;1999.90;999.90;;;26.20;99.90;;;;;;5034441;28;20679;-69
2021/06/28 08:36:46;;;;;;;1999.90;999.90;;;25.90;99.90;;;;;;5034735;28;20183;-69
2021/06/28 08:39:14;;;;;;;1999.90;999.90;;;25.70;99.90;;;;;;5034768;28;20593;-70
2021/06/28 08:41:42;;;;;;;1999.90;999.90;;;25.70;99.90;;;;;;5034533;28;20404;-68
2021/06/28 08:44:10;;;;;;;1999.90;999.90;;;25.70;99.90;;;;;;5034292;28;20382;-69
2021/06/28 08:46:37;;;;;;;1999.90;999.90;;;25.90;99.90;;;;;;5034509;28;20392;-69
2021/06/28 08:49:03;;;;;;;1999.90;999.90;;;26.00;99.90;;;;;;5034505;28;20506;-69
2021/06/28 08:51:29;;;;;;;1999.90;999.90;;;26.20;99.90;;;;;;5034681;28;20485;-69
2021/06/28 08:53:57;;;;;;;1999.90;999.90;;;26.30;99.90;;;;;;5034109;28;20182;-69
2021/06/28 08:56:22;;;;;;;1999.90;999.90;;;26.30;99.90;;;;;;5034384;28;20934;-69
2021/06/28 08:58:48;;;;;;;1999.90;999.90;;;26.30;99.90;;;;;;5034120;28;20393;-69
2021/06/28 09:01:14;;;;;;;1999.90;999.90;;;26.30;99.90;;;;;;5034166;28;20226;-68
2021/06/28 09:03:39;;;;;;;1999.90;999.90;;;26.20;99.90;;;;;;5034155;28;20192;-68
2021/06/28 09:06:14;;;;;;;1999.90;999.90;;;26.20;99.90;;;;;;5034051;28;20164;-69
2021/06/28 09:08:56;;;;;;;1999.90;999.90;;;26.10;99.90;;;;;;5034207;28;20553;-69
2021/06/28 09:11:21;;;;;;;1999.90;999.90;;;26.10;99.90;;;;;;5033982;28;20777;-69
2021/06/28 09:13:49;;;;;;;1999.90;999.90;;;25.80;99.90;;;;;;5076278;22;20490;-67
2021/06/28 09:16:22;;;;;;;1999.90;999.90;;;25.80;99.90;;;;;;5034029;28;20213;-68
2021/06/28 09:19:08;;;;;;;1999.90;999.90;;;25.80;99.90;;;;;;5034047;28;20395;-68
2021/06/28 09:21:42;;;;;;;1999.90;999.90;;;25.80;99.90;;;;;;5034056;28;20419;-68
2021/06/28 09:24:25;;;;;;;1999.90;999.90;;;25.70;99.90;;;;;;5033604;28;20831;-68
2021/06/28 09:26:53;;;;;;;1999.90;999.90;;;25.70;99.90;;;;;;5033831;28;20406;-68
2021/06/28 09:29:35;;;;;;;1999.90;999.90;;;25.60;99.90;;;;;;5033758;28;20499;-68
2021/06/28 09:32:14;;;;;;;1999.90;999.90;;;25.60;99.90;;;;;;5033772;28;20478;-68
2021/06/28 09:34:42;;;;;;;1999.90;999.90;;;25.60;99.90;;;;;;5033263;28;20446;-68
2021/06/28 09:37:16;;;;;;;1999.90;999.90;;;25.60;99.90;;;;;;5033620;28;20392;-68
2021/06/28 09:39:44;;;;;;;1999.90;999.90;;;25.50;99.90;;;;;;5033669;28;20387;-68
2021/06/28 09:42:16;;;;;;;1999.90;999.90;;;25.40;99.90;;;;;;5033101;28;20374;-68
2021/06/28 09:44:50;;;;;;;1999.90;999.90;;;25.40;99.90;;;;;;5033037;28;20434;-68
2021/06/28 09:47:17;;;;;;;1999.90;999.90;;;25.30;99.90;;;;;;5033423;28;20737;-68
2021/06/28 09:50:13;;;;;;;1999.90;999.90;;;25.10;99.90;;;;;;5033349;28;20400;-68
2021/06/28 09:52:56;;;;;;;1999.90;999.90;;;25.00;99.90;;;;;;5028939;28;20485;-68
2021/06/28 09:55:30;;;;;;;1999.90;999.90;;;24.90;99.90;;;;;;5032809;28;20440;-68
2021/06/28 09:58:08;;;;;;;1999.90;999.90;;;24.90;99.90;;;;;;5033125;28;20403;-68
2021/06/28 10:00:39;;;;;;;1999.90;999.90;;;24.90;99.90;;;;;;5033345;28;20402;-68
2021/06/28 10:03:22;;;;;;;1999.90;999.90;;;24.90;99.90;;;;;;5033204;28;20376;-68
2021/06/28 10:08:37;;;;;;;1999.90;999.90;;;24.90;99.90;;;;;;5033156;28;20386;-68
2021/06/28 10:11:30;;;;;;;1999.90;999.90;;;25.00;99.90;;;;;;5033026;28;20404;-68
2021/06/28 10:14:05;;;;;;;1999.90;999.90;;;25.00;99.90;;;;;;5030339;28;20509;-68
2021/06/28 10:16:36;;;;;;;1999.90;999.90;;;24.90;99.90;;;;;;5033191;28;20715;-68
2021/06/28 10:19:05;;;;;;;1999.90;999.90;;;24.90;99.90;;;;;;5032876;28;20763;-68
2021/06/28 10:21:32;;;;;;;1999.90;999.90;;;24.90;99.90;;;;;;5032751;28;20403;-68
2021/06/28 10:23:58;;;;;;;1999.90;999.90;;;24.90;99.90;;;;;;5032417;28;20777;-68
2021/06/28 10:26:25;;;;;;;1999.90;999.90;;;24.70;99.90;;;;;;5032528;28;20434;-68
2021/06/28 10:28:52;;;;;;;1999.90;999.90;;;24.70;99.90;;;;;;5032642;28;20411;-68
2021/06/28 10:31:18;;;;;;;1999.90;999.90;;;24.90;99.90;;;;;;5032573;28;20374;-68
2021/06/28 10:33:59;;;;;;;1999.90;999.90;;;25.10;99.90;;;;;;5032255;28;20423;-68
2021/06/28 10:36:38;;;;;;;1999.90;999.90;;;25.30;99.90;;;;;;5032974;28;20381;-68
2021/06/28 10:39:09;;;;;;;1999.90;999.90;;;25.90;99.90;;;;;;5032632;28;20345;-68
2021/06/28 10:41:36;;;;;;;1999.90;999.90;;;26.30;99.90;;;;;;5032387;28;20370;-68
2021/06/28 10:44:02;;;;;;;1999.90;999.90;;;26.80;99.90;;;;;;5032064;28;20411;-69
2021/06/28 10:46:34;;;;;;;1999.90;999.90;;;27.30;99.90;;;;;;5032367;28;20400;-69
2021/06/28 10:49:00;;;;;;;1999.90;999.90;;;27.40;99.90;;;;;;5032346;28;20391;-68
2021/06/28 10:51:47;;;;;;;1999.90;999.90;;;27.30;99.90;;;;;;5032095;28;20371;-68
2021/06/28 10:54:15;;;;;;;1999.90;999.90;;;27.40;99.90;;;;;;5031628;28;20965;-68
2021/06/28 10:56:50;;;;;;;1999.90;999.90;;;27.70;99.90;;;;;;5032157;28;20418;-69
2021/06/28 10:59:17;;;;;;;1999.90;999.90;;;27.90;99.90;;;;;;5032261;28;20398;-68
2021/06/28 11:01:44;;;;;;;1999.90;999.90;;;28.10;99.90;;;;;;5032135;28;20441;-68
2021/06/28 11:04:16;;;;;;;1999.90;999.90;;;28.10;99.90;;;;;;5031761;28;20437;-68
2021/06/28 11:06:59;;;;;;;1999.90;999.90;;;28.40;99.90;;;;;;5032325;28;20511;-68
2021/06/28 11:09:46;;;;;;;1999.90;999.90;;;28.50;99.90;;;;;;5032066;28;20776;-68
2021/06/28 11:12:19;;;;;;;1999.90;999.90;;;28.60;99.90;;;;;;5031951;28;20442;-69
2021/06/28 11:14:56;;;;;;;1999.90;999.90;;;28.60;99.90;;;;;;5031473;28;20987;-69
2021/06/28 11:17:37;;;;;;;1999.90;999.90;;;28.40;99.90;;;;;;5031995;28;20416;-69
2021/06/28 11:20:05;;;;;;;1999.90;999.90;;;28.40;99.90;;;;;;5031969;28;20414;-68
2021/06/28 11:22:52;;;;;;;1999.90;999.90;;;28.40;99.90;;;;;;5031831;28;20439;-68
2021/06/28 11:25:28;;;;;;;1999.90;999.90;;;28.50;99.90;;;;;;5031526;28;20506;-69
2021/06/28 11:27:59;;;;;;;1999.90;999.90;;;28.40;99.90;;;;;;5031913;28;20411;-69
2021/06/28 11:30:27;;;;;;;1999.90;999.90;;;28.50;99.90;;;;;;5031813;28;20417;-68
2021/06/28 11:33:06;;;;;;;1999.90;999.90;;;28.50;99.90;;;;;;5032244;28;20408;-68
2021/06/28 11:35:44;;;;;;;1999.90;999.90;;;28.70;99.90;;;;;;5031421;28;20845;-69
2021/06/28 11:38:32;;;;;;;1999.90;999.90;;;28.80;99.90;;;;;;5031807;28;20419;-68
2021/06/28 11:41:09;;;;;;;1999.90;999.90;;;29.10;99.90;;;;;;5031658;28;20430;-69
2021/06/28 11:43:46;;;;;;;1999.90;999.90;;;29.30;99.90;;;;;;5031493;28;20412;-68
2021/06/28 11:46:16;;;;;;;1999.90;999.90;;;29.40;99.90;;;;;;5031619;28;20418;-69
2021/06/28 11:48:48;;;;;;;1999.90;999.90;;;29.50;99.90;;;;;;5031649;28;20904;-68
2021/06/28 11:51:15;;;;;;;1999.90;999.90;;;29.60;99.90;;;;;;5031691;28;20770;-68
2021/06/28 11:53:43;;;;;;;1999.90;999.90;;;29.70;99.90;;;;;;5031433;28;20758;-69
2021/06/28 11:56:18;;;;;;;1999.90;999.90;;;29.60;99.90;;;;;;5031341;28;20424;-68
2021/06/28 11:58:58;;;;;;;1999.90;999.90;;;29.60;99.90;;;;;;5031580;28;20398;-69
2021/06/28 12:01:29;;;;;;;1999.90;999.90;;;29.90;99.90;;;;;;5031633;28;20456;-68
2021/06/28 12:03:55;;;;;;;1999.90;999.90;;;30.20;99.90;;;;;;5032592;28;20426;-69
2021/06/28 12:06:27;;;;;;;1999.90;999.90;;;30.50;99.90;;;;;;5035216;28;20914;-69